createdAt,value
2023-04-12T00:01:36.958Z,100369.13
2023-04-12T00:04:05.704Z,100360.19
2023-04-12T00:06:33.723Z,100360.31
2023-04-12T00:09:02.312Z,100348.50
2023-04-12T00:11:32.694Z,100348.63
2023-04-12T00:14:00.636Z,100341.63
2023-04-12T00:16:29.887Z,100340.75
2023-04-12T00:18:58.390Z,100323.88
2023-04-12T00:21:28.834Z,100322.34
2023-04-12T00:23:57.214Z,100324.38
2023-04-12T00:26:26.171Z,100314.41
2023-04-12T00:28:54.137Z,100299.13
2023-04-12T00:31:22.052Z,100299.28
2023-04-12T00:33:51.321Z,100293.78
2023-04-12T00:36:19.384Z,100281.44
2023-04-12T00:38:47.427Z,100273.34
2023-04-12T00:41:15.517Z,100269.91
2023-04-12T00:43:43.477Z,100269.03
2023-04-12T00:46:12.887Z,100253.78
2023-04-12T00:48:40.970Z,100255.78
2023-04-12T00:51:10.590Z,100254.91
2023-04-12T00:53:40.870Z,100253.34
2023-04-12T00:56:11.856Z,100250.94
2023-04-12T00:58:39.733Z,100237.53
2023-04-12T01:01:07.840Z,100233.91
2023-04-12T01:06:30.044Z,100220.22
2023-04-12T01:09:04.716Z,100217.63
2023-04-12T01:11:37.318Z,100205.81
2023-04-12T01:14:11.514Z,100195.72
2023-04-12T01:16:44.312Z,100195.84
2023-04-12T01:19:35.152Z,100196.72
2023-04-12T01:22:14.512Z,100191.44
2023-04-12T01:24:57.537Z,100187.81
2023-04-12T01:27:43.375Z,100167.06
2023-04-12T01:30:15.180Z,100164.47
2023-04-12T01:32:46.968Z,100180.91
2023-04-12T01:35:15.868Z,100151.41
2023-04-12T01:37:44.800Z,100154.00
2023-04-12T01:40:13.938Z,100152.28
2023-04-12T01:42:43.119Z,100152.44
2023-04-12T01:45:11.793Z,100135.28
2023-04-12T01:47:40.227Z,100127.22
2023-04-12T01:50:16.221Z,100118.16
2023-04-12T01:53:04.252Z,100115.56
2023-04-12T01:55:35.112Z,100108.66
2023-04-12T01:58:06.116Z,100099.59
2023-04-12T02:00:36.619Z,100098.91
2023-04-12T02:03:05.967Z,100091.88
2023-04-12T02:05:35.497Z,100083.78
2023-04-12T02:08:04.050Z,100078.63
2023-04-12T02:10:32.607Z,100056.91
2023-04-12T02:13:01.236Z,100047.25
2023-04-12T02:15:30.795Z,100043.66
2023-04-12T02:18:01.626Z,100036.94
2023-04-12T02:20:30.694Z,100041.72
2023-04-12T02:23:00.257Z,100047.34
2023-04-12T02:25:28.304Z,100030.19
2023-04-12T02:27:56.134Z,100034.13
2023-04-12T02:30:24.337Z,100024.34
2023-04-12T02:32:56.230Z,100020.75
2023-04-12T02:35:28.538Z,100016.63
2023-04-12T02:38:03.656Z,100012.31
2023-04-12T02:40:31.567Z,100008.84
2023-04-12T02:42:59.706Z,100002.66
2023-04-12T02:45:28.074Z,99990.19
2023-04-12T02:47:58.709Z,99981.97
2023-04-12T02:50:30.278Z,99965.63
2023-04-12T02:53:05.705Z,99961.88
2023-04-12T02:55:33.619Z,99954.84
2023-04-12T02:58:04.072Z,99950.53
2023-04-12T03:00:32.866Z,99941.78
2023-04-12T03:03:03.861Z,99939.34
2023-04-12T03:05:33.188Z,99925.81
2023-04-12T03:08:01.611Z,99907.88
2023-04-12T03:10:43.820Z,99919.38
2023-04-12T03:13:11.689Z,99902.97
2023-04-12T03:15:43.918Z,99890.34
2023-04-12T03:18:13.968Z,99892.22
2023-04-12T03:20:48.403Z,99885.47
2023-04-12T03:23:17.966Z,99865.47
2023-04-12T03:25:50.844Z,99866.81
2023-04-12T03:28:36.642Z,99853.28
2023-04-12T03:31:07.613Z,99848.69
2023-04-12T03:33:45.003Z,99846.81
2023-04-12T03:36:27.031Z,99837.88
2023-04-12T03:39:06.179Z,99840.78
2023-04-12T03:41:36.316Z,99821.47
2023-04-12T03:44:07.617Z,99802.34
2023-04-12T03:46:36.906Z,99817.88
2023-04-12T03:49:10.503Z,99810.88
2023-04-12T03:51:42.625Z,99804.69
2023-04-12T03:54:11.525Z,99781.25
2023-04-12T03:56:49.690Z,99785.84
2023-04-12T03:59:25.532Z,99764.28
2023-04-12T04:01:53.450Z,99761.75
2023-04-12T04:04:24.492Z,99750.81
2023-04-12T04:06:56.707Z,99749.38
2023-04-12T04:09:25.686Z,99755.19
2023-04-12T04:11:53.650Z,99741.13
2023-04-12T04:14:22.949Z,99730.19
2023-04-12T04:16:51.702Z,99727.59
2023-04-12T04:19:21.201Z,99732.53
2023-04-12T04:21:51.098Z,99729.81
2023-04-12T04:24:22.471Z,99722.78
2023-04-12T04:26:54.399Z,99722.25
2023-04-12T04:29:27.133Z,99719.53
2023-04-12T04:31:55.706Z,99715.75
2023-04-12T04:34:25.374Z,99706.69
2023-04-12T04:37:00.687Z,99712.16
2023-04-12T04:39:29.318Z,99706.88
2023-04-12T04:41:59.668Z,99701.56
2023-04-12T04:44:37.281Z,99697.09
2023-04-12T04:47:08.630Z,99694.38
2023-04-12T04:49:37.991Z,99694.22
2023-04-12T04:52:22.946Z,99695.38
2023-04-12T04:54:51.938Z,99678.13
2023-04-12T04:57:21.086Z,99680.00
2023-04-12T04:59:49.292Z,99678.44
2023-04-12T05:02:18.509Z,99682.34
2023-04-12T05:04:46.520Z,99670.41
2023-04-12T05:07:17.859Z,99669.56
2023-04-12T05:09:49.474Z,99677.75
2023-04-12T05:12:19.761Z,99670.41
2023-04-12T05:14:52.212Z,99668.84
2023-04-12T05:17:20.696Z,99651.28
2023-04-12T05:19:48.491Z,99676.91
2023-04-12T05:22:20.303Z,99654.31
2023-04-12T05:24:49.520Z,99666.97
2023-04-12T05:27:17.646Z,99648.16
2023-04-12T05:29:48.285Z,99652.75
2023-04-12T05:32:18.720Z,99648.16
2023-04-12T05:34:47.740Z,99640.97
2023-04-12T05:37:15.765Z,99642.00
2023-04-12T05:39:44.022Z,99631.25
2023-04-12T05:42:14.812Z,99618.09
2023-04-12T05:44:44.896Z,99614.84
2023-04-12T05:47:15.116Z,99620.31
2023-04-12T05:49:43.141Z,99609.22
2023-04-12T05:52:12.522Z,99603.75
2023-04-12T05:54:41.715Z,99600.16
2023-04-12T05:57:15.421Z,99595.56
2023-04-12T05:59:43.236Z,99592.97
2023-04-12T06:02:12.174Z,99591.97
2023-04-12T06:04:50.056Z,99594.00
2023-04-12T06:07:19.580Z,99592.28
2023-04-12T06:09:47.472Z,99579.63
2023-04-12T06:12:17.575Z,99588.69
2023-04-12T06:14:45.726Z,99573.47
2023-04-12T06:17:14.032Z,99579.94
2023-04-12T06:19:41.774Z,99588.13
2023-04-12T06:22:10.752Z,99583.72
2023-04-12T06:24:40.360Z,99570.06
2023-04-12T06:27:09.136Z,99569.19
2023-04-12T06:29:38.287Z,99558.06
2023-04-12T06:32:06.471Z,99564.75
2023-04-12T06:34:35.042Z,99551.09
2023-04-12T06:37:07.007Z,99543.53
2023-04-12T06:39:34.861Z,99543.91
2023-04-12T06:42:02.766Z,99547.66
2023-04-12T06:44:30.718Z,99521.50
2023-04-12T06:47:00.118Z,99531.25
2023-04-12T06:49:28.063Z,99537.03
2023-04-12T06:51:55.936Z,99525.94
2023-04-12T06:54:24.117Z,99521.34
2023-04-12T06:56:51.927Z,99513.31
2023-04-12T06:59:19.888Z,99506.13
2023-04-12T07:01:47.741Z,99508.84
2023-04-12T07:04:17.082Z,99500.34
2023-04-12T07:06:45.126Z,99502.22
2023-04-12T07:09:12.990Z,99499.50
2023-04-12T07:11:40.812Z,99495.91
2023-04-12T07:14:08.651Z,99483.97
2023-04-12T07:16:36.487Z,99482.25
2023-04-12T07:19:04.360Z,99468.41
2023-04-12T07:21:34.857Z,99472.72
2023-04-12T07:24:02.870Z,99474.75
2023-04-12T07:26:31.401Z,99475.28
2023-04-12T07:28:59.847Z,99474.94
2023-04-12T07:31:30.543Z,99476.66
2023-04-12T07:33:58.548Z,99470.03
2023-04-12T07:36:27.460Z,99458.75
2023-04-12T07:38:56.995Z,99451.41
2023-04-12T07:41:25.024Z,99453.97
2023-04-12T07:43:52.842Z,99450.06
2023-04-12T07:46:20.985Z,99446.47
2023-04-12T07:48:49.353Z,99443.41
2023-04-12T07:51:17.605Z,99441.53
2023-04-12T07:53:48.258Z,99441.53
2023-04-12T07:56:17.505Z,99444.97
2023-04-12T07:58:45.384Z,99444.09
2023-04-12T08:01:14.237Z,99449.41
2023-04-12T08:03:42.274Z,99446.53
2023-04-12T08:06:10.932Z,99446.34
2023-04-12T08:08:38.773Z,99444.28
2023-04-12T08:11:07.017Z,99443.28
2023-04-12T08:13:36.585Z,99440.22
2023-04-12T08:16:04.845Z,99430.31
2023-04-12T08:18:32.704Z,99435.63
2023-04-12T08:21:00.607Z,99455.59
2023-04-12T08:23:28.827Z,99432.72
2023-04-12T08:26:03.375Z,99430.84
2023-04-12T08:28:31.884Z,99424.53
2023-04-12T08:31:01.321Z,99421.44
2023-04-12T08:33:29.244Z,99410.69
2023-04-12T08:35:57.071Z,99419.56
2023-04-12T08:38:37.111Z,99418.53
2023-04-12T08:41:09.831Z,99423.00
2023-04-12T08:43:39.522Z,99414.47
2023-04-12T08:46:09.016Z,99417.88
2023-04-12T08:48:37.704Z,99414.13
2023-04-12T08:51:07.178Z,99397.56
2023-04-12T08:53:35.046Z,99410.38
2023-04-12T08:56:03.445Z,99404.56
2023-04-12T08:58:32.289Z,99413.47
2023-04-12T09:01:01.708Z,99408.81
2023-04-12T09:03:33.636Z,99407.66
2023-04-12T09:06:04.372Z,99407.81
2023-04-12T09:08:32.237Z,99405.78
2023-04-12T09:11:00.062Z,99404.59
2023-04-12T09:13:35.568Z,99404.22
2023-04-12T09:16:03.484Z,99405.44
2023-04-12T09:18:50.592Z,99409.69
2023-04-12T09:21:19.778Z,99409.69
2023-04-12T09:24:03.571Z,99396.56
2023-04-12T09:26:31.574Z,99401.16
2023-04-12T09:28:59.561Z,99390.94
2023-04-12T09:31:27.878Z,99404.44
2023-04-12T09:34:08.412Z,99401.19
2023-04-12T09:36:40.508Z,99398.59
2023-04-12T09:39:09.094Z,99396.72
2023-04-12T09:41:37.280Z,99411.09
2023-04-12T09:44:05.204Z,99400.84
2023-04-12T09:46:33.637Z,99404.25
2023-04-12T09:49:04.702Z,99399.31
2023-04-12T09:51:34.228Z,99391.97
2023-04-12T09:54:03.149Z,99391.66
2023-04-12T09:56:32.705Z,99397.63
2023-04-12T09:59:05.320Z,99399.19
2023-04-12T10:01:36.781Z,99393.88
2023-04-12T10:04:07.808Z,99387.91
2023-04-12T10:06:36.996Z,99382.25
2023-04-12T10:09:06.538Z,99387.38
2023-04-12T10:11:35.029Z,99381.75
2023-04-12T10:14:04.084Z,99381.22
2023-04-12T10:16:34.681Z,99375.59
2023-04-12T10:19:04.356Z,99369.59
2023-04-12T10:21:33.714Z,99378.47
2023-04-12T10:24:02.020Z,99366.34
2023-04-12T10:26:30.179Z,99363.44
2023-04-12T10:29:23.441Z,99369.25
2023-04-12T10:31:51.611Z,99380.38
2023-04-12T10:34:19.571Z,99374.22
2023-04-12T10:36:56.392Z,99382.44
2023-04-12T10:39:42.393Z,99379.69
2023-04-12T10:42:27.080Z,99377.81
2023-04-12T10:44:57.484Z,99375.06
2023-04-12T10:48:01.449Z,99386.03
2023-04-12T10:50:30.834Z,99385.16
2023-04-12T10:53:26.616Z,99392.31
2023-04-12T10:55:54.684Z,99405.34
2023-04-12T10:58:56.709Z,99407.72
2023-04-12T11:01:26.196Z,99405.19
2023-04-12T11:04:07.948Z,99410.28
2023-04-12T11:06:59.055Z,99411.16
2023-04-12T11:09:48.624Z,99387.69
2023-04-12T11:12:28.369Z,99406.53
2023-04-12T11:15:01.923Z,99393.88
2023-04-12T11:17:56.171Z,99398.84
2023-04-12T11:20:24.354Z,99398.84
2023-04-12T11:22:53.861Z,99406.53
2023-04-12T11:25:25.519Z,99398.16
2023-04-12T11:27:54.798Z,99400.72
2023-04-12T11:30:25.660Z,99399.50
2023-04-12T11:32:53.620Z,99395.56
2023-04-12T11:35:27.365Z,99395.22
2023-04-12T11:37:57.400Z,99399.47
2023-04-12T11:40:27.561Z,99395.38
2023-04-12T11:42:57.582Z,99393.31
2023-04-12T11:45:25.545Z,99395.53
2023-04-12T11:47:54.844Z,99393.31
2023-04-12T11:50:31.351Z,99390.72
2023-04-12T11:53:11.916Z,99400.97
2023-04-12T11:55:42.369Z,99401.31
2023-04-12T11:58:10.158Z,99406.09
2023-04-12T12:00:38.441Z,99407.09
2023-04-12T12:03:08.531Z,99403.66
2023-04-12T12:05:38.644Z,99402.06
2023-04-12T12:08:07.878Z,99399.31
2023-04-12T12:10:46.435Z,99396.88
2023-04-12T12:13:25.151Z,99397.19
2023-04-12T12:15:53.560Z,99395.66
2023-04-12T12:18:27.318Z,99397.50
2023-04-12T12:20:55.777Z,99393.72
2023-04-12T12:23:31.187Z,99393.00
2023-04-12T12:26:14.434Z,99391.97
2023-04-12T12:28:51.602Z,99392.25
2023-04-12T12:31:21.551Z,99393.78
2023-04-12T12:33:49.834Z,99393.41
2023-04-12T12:36:20.909Z,99390.31
2023-04-12T12:38:51.342Z,99396.50
2023-04-12T12:41:21.009Z,99391.47
2023-04-12T12:43:52.078Z,99391.13
2023-04-12T12:46:21.462Z,99388.19
2023-04-12T12:48:49.621Z,99385.06
2023-04-12T12:51:19.396Z,99388.50
2023-04-12T12:53:47.574Z,99388.31
2023-04-12T12:56:17.099Z,99385.22
2023-04-12T12:58:45.248Z,99373.22
2023-04-12T13:01:14.472Z,99376.25
2023-04-12T13:03:42.372Z,99379.84
2023-04-12T13:06:10.630Z,99369.56
2023-04-12T13:08:38.452Z,99368.34
2023-04-12T13:11:06.917Z,99378.09
2023-04-12T13:13:34.743Z,99384.44
2023-04-12T13:16:02.618Z,99376.88
2023-04-12T13:18:31.845Z,99372.91
2023-04-12T13:20:59.729Z,99368.25
2023-04-12T13:23:27.591Z,99372.53
2023-04-12T13:25:55.365Z,99377.69
2023-04-12T13:28:23.143Z,99368.88
2023-04-12T13:30:50.971Z,99377.41
2023-04-12T13:33:21.670Z,99374.28
2023-04-12T13:35:51.792Z,99372.91
2023-04-12T13:38:20.161Z,99375.25
2023-04-12T13:40:48.064Z,99375.06
2023-04-12T13:43:16.755Z,99380.19
2023-04-12T13:45:44.899Z,99371.97
2023-04-12T13:48:12.850Z,99367.13
2023-04-12T13:50:40.843Z,99379.63
2023-04-12T13:53:10.090Z,99376.69
2023-04-12T13:55:38.021Z,99377.75
2023-04-12T13:58:05.918Z,99382.19
2023-04-12T14:00:34.332Z,99383.06
2023-04-12T14:03:02.560Z,99392.31
2023-04-12T14:05:30.718Z,99397.16
2023-04-12T14:07:58.497Z,99407.28
2023-04-12T14:10:27.693Z,99422.72
2023-04-12T14:12:55.507Z,99469.13
2023-04-12T14:15:23.563Z,99457.47
2023-04-12T14:17:51.489Z,99453.56
2023-04-12T14:20:20.288Z,99457.88
2023-04-12T14:22:48.064Z,99459.84
2023-04-12T14:25:15.923Z,99457.13
2023-04-12T14:27:45.405Z,99457.88
2023-04-12T14:30:13.974Z,99461.69
2023-04-12T14:32:42.044Z,99448.00
2023-04-12T14:35:10.624Z,99446.84
2023-04-12T14:37:38.385Z,99443.13
2023-04-12T14:40:08.373Z,99449.13
2023-04-12T14:42:37.526Z,99440.78
2023-04-12T14:45:09.438Z,99437.34
2023-04-12T14:47:37.565Z,99441.00
2023-04-12T14:50:05.917Z,99438.25
2023-04-12T14:52:34.953Z,99432.94
2023-04-12T14:55:02.751Z,99432.94
2023-04-12T14:57:30.686Z,99431.25
2023-04-12T14:59:58.616Z,99439.28
2023-04-12T15:02:28.149Z,99437.22
2023-04-12T15:04:56.208Z,99431.06
2023-04-12T15:07:24.051Z,99430.03
2023-04-12T15:09:51.939Z,99437.22
2023-04-12T15:12:19.814Z,99436.38
2023-04-12T15:14:47.617Z,99441.00
2023-04-12T15:17:15.473Z,99474.75
2023-04-12T15:19:44.662Z,99483.84
2023-04-12T15:22:12.534Z,99487.78
2023-04-12T15:24:40.362Z,99492.63
2023-04-12T15:27:08.275Z,99488.34
2023-04-12T15:29:36.511Z,99500.50
2023-04-12T15:32:04.444Z,99493.69
2023-04-12T15:34:33.919Z,99492.31
2023-04-12T15:37:03.231Z,99496.06
2023-04-12T15:39:31.274Z,99492.16
2023-04-12T15:42:00.318Z,99494.22
2023-04-12T15:44:31.755Z,99496.47
2023-04-12T15:47:10.349Z,99505.88
2023-04-12T15:49:39.616Z,99499.94
2023-04-12T15:52:09.082Z,99510.03
2023-04-12T15:54:43.612Z,99515.84
2023-04-12T15:57:12.076Z,99518.06
2023-04-12T15:59:41.936Z,99524.41
2023-04-12T16:02:10.646Z,99533.16
2023-04-12T16:04:39.197Z,99532.47
2023-04-12T16:07:09.125Z,99532.66
2023-04-12T16:09:39.689Z,99545.69
2023-04-12T16:12:08.049Z,99552.34
2023-04-12T16:14:36.914Z,99552.50
2023-04-12T16:17:04.824Z,99541.69
2023-04-12T16:19:33.386Z,99547.34
2023-04-12T16:22:01.754Z,99547.56
2023-04-12T16:24:31.069Z,99544.81
2023-04-12T16:26:59.232Z,99541.38
2023-04-12T16:29:27.104Z,99547.03
2023-04-12T16:31:55.062Z,99540.00
2023-04-12T16:34:23.280Z,99531.97
2023-04-12T16:36:52.953Z,99528.19
2023-04-12T16:39:20.817Z,99519.63
2023-04-12T16:41:50.007Z,99522.22
2023-04-12T16:44:19.296Z,99516.03
2023-04-12T16:46:48.818Z,99516.91
2023-04-12T16:49:19.625Z,99504.22
2023-04-12T16:51:48.108Z,99519.63
2023-04-12T16:54:16.298Z,99518.59
2023-04-12T16:56:44.220Z,99515.88
2023-04-12T16:59:13.698Z,99517.41
2023-04-12T17:01:42.326Z,99513.81
2023-04-12T17:04:10.331Z,99523.75
2023-04-12T17:06:39.628Z,99526.28
2023-04-12T17:09:08.565Z,99530.91
2023-04-12T17:11:36.463Z,99526.28
2023-04-12T17:14:04.352Z,99532.63
2023-04-12T17:16:33.772Z,99539.81
2023-04-12T17:19:01.888Z,99530.06
2023-04-12T17:21:30.520Z,99530.25
2023-04-12T17:23:58.572Z,99538.47
2023-04-12T17:26:27.857Z,99524.94
2023-04-12T17:28:56.801Z,99526.81
2023-04-12T17:31:27.006Z,99521.69
2023-04-12T17:33:56.816Z,99530.06
2023-04-12T17:36:24.809Z,99528.03
2023-04-12T17:38:53.986Z,99525.66
2023-04-12T17:41:22.336Z,99519.81
2023-04-12T17:43:50.559Z,99515.88
2023-04-12T17:46:18.508Z,99519.97
2023-04-12T17:48:46.464Z,99526.66
2023-04-12T17:51:16.207Z,99533.34
2023-04-12T17:53:45.636Z,99523.72
2023-04-12T17:56:14.031Z,99519.47
2023-04-12T17:58:44.178Z,99518.63
2023-04-12T18:01:12.198Z,99522.69
2023-04-12T18:03:40.446Z,99516.56
2023-04-12T18:06:08.869Z,99516.03
2023-04-12T18:08:38.861Z,99524.41
2023-04-12T18:11:08.015Z,99529.19
2023-04-12T18:13:38.320Z,99524.75
2023-04-12T18:16:07.078Z,99522.50
2023-04-12T18:18:35.773Z,99525.25
2023-04-12T18:21:05.261Z,99530.03
2023-04-12T18:23:33.258Z,99523.03
2023-04-12T18:26:02.468Z,99529.38
2023-04-12T18:28:31.735Z,99526.97
2023-04-12T18:30:59.891Z,99545.41
2023-04-12T18:33:29.860Z,99548.16
2023-04-12T18:35:57.703Z,99543.69
2023-04-12T18:38:25.581Z,99546.63
2023-04-12T18:40:53.461Z,99549.53
2023-04-12T18:43:22.846Z,99551.41
2023-04-12T18:45:50.756Z,99543.53
2023-04-12T18:48:18.925Z,99538.19
2023-04-12T18:50:47.523Z,99550.00
2023-04-12T18:53:15.409Z,99549.34
2023-04-12T18:55:43.311Z,99556.69
2023-04-12T18:58:11.721Z,99557.56
2023-04-12T19:00:41.609Z,99570.19
2023-04-12T19:03:09.653Z,99577.72
2023-04-12T19:05:37.723Z,99589.69
2023-04-12T19:08:06.328Z,99607.81
2023-04-12T19:10:34.269Z,99617.91
2023-04-12T19:13:02.300Z,99635.34
2023-04-12T19:15:30.177Z,99632.75
2023-04-12T19:18:01.133Z,99583.66
2023-04-12T19:20:29.333Z,99561.56
2023-04-12T19:22:57.229Z,99586.50
2023-04-12T19:25:29.768Z,99591.47
2023-04-12T19:27:58.368Z,99583.06
2023-04-12T19:30:26.232Z,99579.63
2023-04-12T19:32:54.312Z,99580.81
2023-04-12T19:35:24.036Z,99581.16
2023-04-12T19:37:54.557Z,99584.38
2023-04-12T19:40:22.572Z,99584.69
2023-04-12T19:42:50.435Z,99584.16
2023-04-12T19:45:18.315Z,99582.59
2023-04-12T19:47:46.306Z,99581.91
2023-04-12T19:50:15.414Z,99575.91
2023-04-12T19:52:45.502Z,99573.34
2023-04-12T19:55:14.080Z,99566.81
2023-04-12T19:57:42.026Z,99575.34
2023-04-12T20:00:14.354Z,99581.44
2023-04-12T20:02:42.664Z,99568.75
2023-04-12T20:05:11.161Z,99572.84
2023-04-12T20:07:39.752Z,99569.88
2023-04-12T20:10:10.767Z,99577.53
2023-04-12T20:12:39.173Z,99582.78
2023-04-12T20:15:08.273Z,99578.81
2023-04-12T20:17:36.605Z,99583.91
2023-04-12T20:20:08.722Z,99590.69
2023-04-12T20:22:36.733Z,99581.25
2023-04-12T20:25:05.677Z,99599.50
2023-04-12T20:27:36.647Z,99590.63
2023-04-12T20:30:05.337Z,99589.06
2023-04-12T20:32:34.358Z,99591.94
2023-04-12T20:35:03.863Z,99587.47
2023-04-12T20:37:32.665Z,99582.16
2023-04-12T20:40:00.861Z,99584.91
2023-04-12T20:42:50.038Z,99582.88
2023-04-12T20:45:18.882Z,99579.59
2023-04-12T20:48:17.265Z,99572.09
2023-04-12T20:50:48.059Z,99574.31
2023-04-12T20:53:17.491Z,99563.69
2023-04-12T20:55:45.571Z,99561.97
2023-04-12T20:58:16.385Z,99565.72
2023-04-12T21:00:44.263Z,99564.47
2023-04-12T21:03:13.548Z,99572.97
2023-04-12T21:05:41.918Z,99565.28
2023-04-12T21:08:10.332Z,99560.97
2023-04-12T21:10:38.134Z,99566.72
2023-04-12T21:13:06.224Z,99566.06
2023-04-12T21:15:36.413Z,99562.63
2023-04-12T21:18:04.545Z,99560.19
2023-04-12T21:20:32.719Z,99572.97
2023-04-12T21:23:01.702Z,99576.91
2023-04-12T21:25:29.703Z,99580.63
2023-04-12T21:27:57.489Z,99587.09
2023-04-12T21:30:25.364Z,99574.63
2023-04-12T21:32:54.681Z,99566.28
2023-04-12T21:35:23.062Z,99561.97
2023-04-12T21:37:51.750Z,99560.97
2023-04-12T21:40:22.394Z,99533.84
2023-04-12T21:42:50.246Z,99553.78
2023-04-12T21:45:18.100Z,99535.56
2023-04-12T21:47:46.207Z,99535.56
2023-04-12T21:50:15.634Z,99528.78
2023-04-12T21:52:45.506Z,99525.34
2023-04-12T21:55:13.270Z,99529.66
2023-04-12T21:57:41.369Z,99534.94
2023-04-12T22:00:10.116Z,99523.00
2023-04-12T22:02:40.891Z,99531.03
2023-04-12T22:05:09.165Z,99518.25
2023-04-12T22:07:41.057Z,99514.34
2023-04-12T22:10:12.229Z,99502.72
2023-04-12T22:12:40.816Z,99501.56
2023-04-12T22:15:11.464Z,99499.69
2023-04-12T22:17:39.680Z,99502.44
2023-04-12T22:20:10.912Z,99499.69
2023-04-12T22:22:40.258Z,99494.09
2023-04-12T22:25:12.053Z,99498.69
2023-04-12T22:27:40.027Z,99490.66
2023-04-12T22:30:10.038Z,99495.09
2023-04-12T22:32:38.214Z,99499.84
2023-04-12T22:35:08.927Z,99493.53
2023-04-12T22:37:37.756Z,99504.59
2023-04-12T22:40:11.745Z,99507.19
2023-04-12T22:42:46.835Z,99502.88
2023-04-12T22:45:15.698Z,99502.03
2023-04-12T22:47:43.847Z,99494.88
2023-04-12T22:50:13.051Z,99488.56
2023-04-12T22:52:41.860Z,99487.69
2023-04-12T22:55:12.861Z,99474.91
2023-04-12T22:57:40.747Z,99472.50
2023-04-12T23:00:15.844Z,99473.34
2023-04-12T23:02:45.823Z,99462.75
2023-04-12T23:05:14.093Z,99463.75
2023-04-12T23:07:43.656Z,99452.16
2023-04-12T23:10:13.109Z,99449.44
2023-04-12T23:12:41.242Z,99441.56
2023-04-12T23:15:10.205Z,99443.28
2023-04-12T23:17:38.065Z,99438.97
2023-04-12T23:20:09.955Z,99429.78
2023-04-12T23:22:56.553Z,99430.28
2023-04-12T23:25:37.974Z,99420.03
2023-04-12T23:28:07.535Z,99427.34
2023-04-12T23:30:35.236Z,99412.84
2023-04-12T23:33:03.284Z,99412.84
2023-04-12T23:35:31.055Z,99412.03
2023-04-12T23:37:59.190Z,99409.31
2023-04-12T23:40:30.494Z,99407.41
2023-04-12T23:42:58.686Z,99395.81
2023-04-12T23:45:26.480Z,99398.53
2023-04-12T23:47:54.411Z,99400.41
2023-04-12T23:50:22.385Z,99389.50
2023-04-12T23:52:50.227Z,99394.97
2023-04-12T23:55:18.364Z,99392.06
2023-04-12T23:57:47.595Z,99386.63
